createdAt,value
2016-02-14T00:00:51.166Z,960.37
2016-02-14T00:01:51.169Z,960.44
2016-02-14T00:02:51.172Z,960.37
2016-02-14T00:03:51.174Z,960.4
2016-02-14T00:04:51.177Z,960.4
2016-02-14T00:05:51.165Z,960.43
2016-02-14T00:06:51.167Z,960.43
2016-02-14T00:07:51.154Z,960.5
2016-02-14T00:08:51.157Z,960.49
2016-02-14T00:09:51.160Z,960.49
2016-02-14T00:10:51.163Z,960.49
2016-02-14T00:11:51.149Z,960.45
2016-02-14T00:12:51.151Z,960.47
2016-02-14T00:13:51.155Z,960.53
2016-02-14T00:14:51.157Z,960.51
2016-02-14T00:15:51.159Z,960.52
2016-02-14T00:16:51.148Z,960.55
2016-02-14T00:17:51.150Z,960.53
2016-02-14T00:18:51.168Z,960.57
2016-02-14T00:19:51.155Z,960.59
2016-02-14T00:20:51.158Z,960.65
2016-02-14T00:21:51.145Z,960.61
2016-02-14T00:22:51.148Z,960.63
2016-02-14T00:23:51.150Z,960.67
2016-02-14T00:24:51.152Z,960.65
2016-02-14T00:25:51.141Z,960.6
2016-02-14T00:26:51.143Z,960.66
2016-02-14T00:27:51.146Z,960.64
2016-02-14T00:28:51.149Z,960.63
2016-02-14T00:29:51.135Z,960.64
2016-02-14T00:30:51.143Z,960.67
2016-02-14T00:31:51.148Z,960.67
2016-02-14T00:32:51.150Z,960.67
2016-02-14T00:33:51.137Z,960.65
2016-02-14T00:34:51.140Z,960.66
2016-02-14T00:35:51.147Z,960.68
2016-02-14T00:36:51.134Z,960.67
2016-02-14T00:37:51.137Z,960.69
2016-02-14T00:38:51.139Z,960.7
2016-02-14T00:39:51.143Z,960.77
2016-02-14T00:40:51.145Z,960.83
2016-02-14T00:41:51.132Z,960.86
2016-02-14T00:42:51.136Z,960.93
2016-02-14T00:43:51.200Z,960.9
2016-02-14T00:44:51.202Z,960.99
2016-02-14T00:45:51.143Z,960.96
2016-02-14T00:46:51.146Z,960.97
2016-02-14T00:47:51.132Z,961
2016-02-14T00:48:51.136Z,960.99
2016-02-14T00:49:51.138Z,961.01
2016-02-14T00:50:51.141Z,961.04
2016-02-14T00:51:51.129Z,961.01
2016-02-14T00:52:51.131Z,960.99
2016-02-14T00:53:51.133Z,961
2016-02-14T00:54:51.152Z,961
2016-02-14T00:55:51.139Z,961
2016-02-14T00:56:51.126Z,960.97
2016-02-14T00:57:51.129Z,960.97
2016-02-14T00:58:51.131Z,960.96
2016-02-14T00:59:51.134Z,960.94
2016-02-14T01:00:51.137Z,960.88
2016-02-14T01:01:51.139Z,960.89
2016-02-14T01:02:51.126Z,960.92
2016-02-14T01:03:51.129Z,960.94
2016-02-14T01:04:51.131Z,960.98
2016-02-14T01:05:51.134Z,960.97
2016-02-14T01:06:51.137Z,960.96
2016-02-14T01:07:51.125Z,960.97
2016-02-14T01:08:51.142Z,960.91
2016-02-14T01:09:51.130Z,960.91
2016-02-14T01:10:51.132Z,960.91
2016-02-14T01:11:51.135Z,960.95
2016-02-14T01:12:51.122Z,961
2016-02-14T01:13:51.124Z,960.99
2016-02-14T01:14:51.128Z,961.02
2016-02-14T01:15:51.130Z,961.05
2016-02-14T01:16:51.133Z,961
2016-02-14T01:17:51.119Z,961.1
2016-02-14T01:18:51.122Z,961.09
2016-02-14T01:19:51.125Z,961.04
2016-02-14T01:20:51.127Z,961.1
2016-02-14T01:21:51.130Z,961.11
2016-02-14T01:22:51.118Z,961.16
2016-02-14T01:23:51.136Z,961.21
2016-02-14T01:24:51.124Z,961.18
2016-02-14T01:25:51.126Z,961.17
2016-02-14T01:26:51.128Z,961.21
2016-02-14T01:27:51.116Z,961.19
2016-02-14T01:28:51.118Z,961.21
2016-02-14T01:29:51.120Z,961.3
2016-02-14T01:30:51.123Z,961.3
2016-02-14T01:31:51.126Z,961.28
2016-02-14T01:32:51.113Z,961.26
2016-02-14T01:33:51.117Z,961.29
2016-02-14T01:34:51.119Z,961.29
2016-02-14T01:35:51.121Z,961.25
2016-02-14T01:36:51.125Z,961.27
2016-02-14T01:37:51.127Z,961.22
2016-02-14T01:38:51.113Z,961.16
2016-02-14T01:39:51.117Z,961.22
2016-02-14T01:40:51.119Z,961.21
2016-02-14T01:41:51.122Z,961.16
2016-02-14T01:42:51.109Z,961.15
2016-02-14T01:43:51.127Z,961.18
2016-02-14T01:44:51.114Z,961.13
2016-02-14T01:45:51.117Z,961.17
2016-02-14T01:46:51.119Z,961.23
2016-02-14T01:47:51.122Z,961.22
2016-02-14T01:48:51.109Z,961.22
2016-02-14T01:49:51.112Z,961.2
2016-02-14T01:50:51.115Z,961.15
2016-02-14T01:51:51.132Z,961.09
2016-02-14T01:52:51.120Z,961.16
2016-02-14T01:53:51.123Z,961.11
2016-02-14T01:54:51.109Z,961.18
2016-02-14T01:55:51.112Z,961.17
2016-02-14T01:56:51.115Z,961.13
2016-02-14T01:57:51.118Z,961.13
2016-02-14T01:58:51.121Z,961.1
2016-02-14T01:59:51.108Z,961.11
2016-02-14T02:00:51.110Z,961.19
2016-02-14T02:01:51.113Z,961.14
2016-02-14T02:02:51.115Z,961.16
2016-02-14T02:03:51.118Z,961.21
2016-02-14T02:04:51.106Z,961.21
2016-02-14T02:05:51.108Z,961.21
2016-02-14T02:06:51.111Z,961.24
2016-02-14T02:07:51.114Z,961.25
2016-02-14T02:08:51.117Z,961.24
2016-02-14T02:09:51.103Z,961.25
2016-02-14T02:10:51.106Z,961.24
2016-02-14T02:11:51.108Z,961.26
2016-02-14T02:12:51.112Z,961.19
2016-02-14T02:13:51.114Z,961.22
2016-02-14T02:14:51.101Z,961.23
2016-02-14T02:15:51.104Z,961.24
2016-02-14T02:16:51.107Z,961.24
2016-02-14T02:17:51.110Z,961.23
2016-02-14T02:18:51.097Z,961.39
2016-02-14T02:19:51.099Z,961.3
2016-02-14T02:20:51.101Z,961.31
2016-02-14T02:21:51.105Z,961.27
2016-02-14T02:22:51.091Z,961.32
2016-02-14T02:23:51.093Z,961.41
2016-02-14T02:24:51.097Z,961.5
2016-02-14T02:25:51.099Z,961.51
2016-02-14T02:26:51.087Z,961.56
2016-02-14T02:27:51.090Z,961.58
2016-02-14T02:28:51.092Z,961.52
2016-02-14T02:29:51.095Z,961.55
2016-02-14T02:30:51.098Z,961.55
2016-02-14T02:31:51.084Z,961.52
2016-02-14T02:32:51.118Z,961.59
2016-02-14T02:33:51.090Z,961.61
2016-02-14T02:34:51.092Z,961.61
2016-02-14T02:35:51.079Z,961.56
2016-02-14T02:36:51.082Z,961.56
2016-02-14T02:37:51.084Z,961.56
2016-02-14T02:38:51.087Z,961.64
2016-02-14T02:39:51.075Z,961.63
2016-02-14T02:40:51.077Z,961.65
2016-02-14T02:41:51.080Z,961.6
2016-02-14T02:42:51.083Z,961.62
2016-02-14T02:43:51.085Z,961.63
2016-02-14T02:44:51.072Z,961.68
2016-02-14T02:45:51.075Z,961.63
2016-02-14T02:46:51.078Z,961.71
2016-02-14T02:47:51.080Z,961.74
2016-02-14T02:48:51.068Z,961.73
2016-02-14T02:49:51.071Z,961.77
2016-02-14T02:50:51.073Z,961.79
2016-02-14T02:51:51.076Z,961.79
2016-02-14T02:52:51.079Z,961.7
2016-02-14T02:53:51.082Z,961.65
2016-02-14T02:54:51.069Z,961.64
2016-02-14T02:55:51.071Z,961.55
2016-02-14T02:56:51.073Z,961.61
2016-02-14T02:57:51.077Z,961.61
2016-02-14T02:58:51.063Z,961.64
2016-02-14T02:59:51.065Z,961.59
2016-02-14T03:00:51.068Z,961.65
2016-02-14T03:01:51.071Z,961.67
2016-02-14T03:02:51.073Z,961.65
2016-02-14T03:03:51.077Z,961.65
2016-02-14T03:04:51.048Z,961.61
2016-02-14T03:05:51.050Z,961.65
2016-02-14T03:06:51.054Z,961.7
2016-02-14T03:07:51.056Z,961.7
2016-02-14T03:08:51.042Z,961.73
2016-02-14T03:09:51.046Z,961.73
2016-02-14T03:10:51.048Z,961.74
2016-02-14T03:11:51.051Z,961.8
2016-02-14T03:12:51.039Z,961.88
2016-02-14T03:13:51.041Z,961.75
2016-02-14T03:14:51.044Z,961.84
2016-02-14T03:15:51.047Z,961.83
2016-02-14T03:16:51.050Z,961.85
2016-02-14T03:17:51.036Z,961.84
2016-02-14T03:18:51.038Z,961.86
2016-02-14T03:19:51.042Z,961.91
2016-02-14T03:20:51.044Z,961.89
2016-02-14T03:21:51.047Z,961.92
2016-02-14T03:22:51.034Z,961.86
2016-02-14T03:23:51.037Z,961.91
2016-02-14T03:24:51.040Z,961.88
2016-02-14T03:25:51.042Z,961.81
2016-02-14T03:26:51.029Z,961.74
2016-02-14T03:27:51.032Z,961.8
2016-02-14T03:28:51.035Z,961.81
2016-02-14T03:29:51.037Z,961.79
2016-02-14T03:30:51.040Z,961.83
2016-02-14T03:31:51.027Z,961.83
2016-02-14T03:32:51.029Z,961.74
2016-02-14T03:33:51.032Z,961.74
2016-02-14T03:34:51.035Z,961.8
2016-02-14T03:35:51.037Z,961.78
2016-02-14T03:36:51.040Z,961.79
2016-02-14T03:37:51.028Z,961.8
2016-02-14T03:38:51.030Z,961.82
2016-02-14T03:39:51.034Z,961.78
2016-02-14T03:40:51.036Z,961.84
2016-02-14T03:41:51.038Z,961.8
2016-02-14T03:42:51.041Z,961.81
2016-02-14T03:43:51.028Z,961.75
2016-02-14T03:44:51.030Z,961.76
2016-02-14T03:45:51.049Z,961.68
2016-02-14T03:46:51.020Z,961.74
2016-02-14T03:47:51.022Z,961.79
2016-02-14T03:48:51.026Z,961.82
2016-02-14T03:49:51.028Z,961.82
2016-02-14T03:50:51.015Z,961.8
2016-02-14T03:51:51.019Z,961.82
2016-02-14T03:52:51.021Z,961.84
2016-02-14T03:53:51.024Z,961.86
2016-02-14T03:54:51.026Z,961.86
2016-02-14T03:55:51.029Z,961.88
2016-02-14T03:56:51.032Z,961.89
2016-02-14T03:57:51.019Z,961.93
2016-02-14T03:58:51.021Z,961.88
2016-02-14T03:59:51.024Z,961.91
2016-02-14T04:00:51.011Z,961.91
2016-02-14T04:01:51.015Z,961.9
2016-02-14T04:02:51.017Z,961.82
2016-02-14T04:03:51.019Z,961.84
2016-02-14T04:04:51.007Z,961.91
2016-02-14T04:05:51.009Z,961.94
2016-02-14T04:06:51.012Z,961.97
2016-02-14T04:07:51.014Z,961.96
2016-02-14T04:08:51.017Z,961.98
2016-02-14T04:09:51.003Z,961.98
2016-02-14T04:10:51.007Z,961.96
2016-02-14T04:11:51.009Z,961.96
2016-02-14T04:12:51.011Z,961.93
2016-02-14T04:13:51.015Z,961.9
2016-02-14T04:14:51.002Z,961.92
2016-02-14T04:15:51.005Z,961.93
2016-02-14T04:16:51.008Z,961.93
2016-02-14T04:17:51.010Z,961.94
2016-02-14T04:18:51.013Z,961.91
2016-02-14T04:19:51.016Z,961.86
2016-02-14T04:20:51.002Z,961.88
2016-02-14T04:21:51.005Z,961.92
2016-02-14T04:22:51.008Z,961.93
2016-02-14T04:23:51.010Z,961.96
2016-02-14T04:24:51.013Z,961.93
2016-02-14T04:25:51.000Z,961.93
2016-02-14T04:26:51.003Z,961.93
2016-02-14T04:27:51.005Z,961.93
2016-02-14T04:28:51.024Z,961.89
2016-02-14T04:29:50.995Z,961.92
2016-02-14T04:30:50.998Z,961.97
2016-02-14T04:31:51.000Z,961.91
2016-02-14T04:32:51.003Z,961.89
2016-02-14T04:33:51.006Z,961.91
2016-02-14T04:34:50.993Z,961.88
2016-02-14T04:35:50.996Z,961.89
2016-02-14T04:36:50.998Z,961.88
2016-02-14T04:37:51.001Z,961.89
2016-02-14T04:38:51.004Z,961.84
2016-02-14T04:39:51.006Z,961.82
2016-02-14T04:40:51.009Z,961.84
2016-02-14T04:41:51.012Z,961.83
2016-02-14T04:42:51.002Z,961.86
2016-02-14T04:43:50.991Z,961.82
2016-02-14T04:44:50.993Z,961.89
2016-02-14T04:45:50.996Z,961.87
2016-02-14T04:46:50.998Z,961.88
2016-02-14T04:47:51.001Z,961.96
2016-02-14T04:48:50.987Z,961.94
2016-02-14T04:49:50.991Z,961.92
2016-02-14T04:50:50.993Z,961.9
2016-02-14T04:51:50.995Z,961.85
2016-02-14T04:52:50.983Z,961.83
2016-02-14T04:53:50.986Z,961.84
2016-02-14T04:54:50.989Z,961.86
2016-02-14T04:55:50.991Z,961.79
2016-02-14T04:56:50.994Z,961.8
2016-02-14T04:57:50.981Z,961.77
2016-02-14T04:58:51.000Z,961.72
2016-02-14T04:59:50.986Z,961.68
2016-02-14T05:00:50.989Z,961.72
2016-02-14T05:01:50.975Z,961.68
2016-02-14T05:02:50.979Z,961.67
2016-02-14T05:03:50.981Z,961.64
2016-02-14T05:04:50.983Z,961.64
2016-02-14T05:05:50.986Z,961.58
2016-02-14T05:06:50.989Z,961.63
2016-02-14T05:07:50.977Z,961.68
2016-02-14T05:08:50.980Z,961.67
2016-02-14T05:09:50.982Z,961.71
2016-02-14T05:10:50.968Z,961.68
2016-02-14T05:11:50.972Z,961.64
2016-02-14T05:12:50.975Z,961.64
2016-02-14T05:13:50.977Z,961.61
2016-02-14T05:14:50.965Z,961.57
2016-02-14T05:15:50.983Z,961.61
2016-02-14T05:16:50.986Z,961.63
2016-02-14T05:17:50.973Z,961.64
2016-02-14T05:18:50.960Z,961.69
2016-02-14T05:19:50.963Z,961.7
2016-02-14T05:20:50.966Z,961.73
2016-02-14T05:21:50.952Z,961.74
2016-02-14T05:22:50.971Z,961.71
2016-02-14T05:23:50.957Z,961.73
2016-02-14T05:24:50.961Z,961.77
2016-02-14T05:25:50.963Z,961.76
2016-02-14T05:26:50.951Z,961.73
2016-02-14T05:27:50.954Z,961.74
2016-02-14T05:28:50.956Z,961.78
2016-02-14T05:29:50.943Z,961.75
2016-02-14T05:30:50.946Z,961.78
2016-02-14T05:31:50.948Z,961.72
2016-02-14T05:32:50.950Z,961.76
2016-02-14T05:33:50.954Z,961.75
2016-02-14T05:34:50.940Z,961.77
2016-02-14T05:35:50.943Z,961.74
2016-02-14T05:36:50.946Z,961.72
2016-02-14T05:37:50.948Z,961.76
2016-02-14T05:38:50.936Z,961.73
2016-02-14T05:39:50.939Z,961.71
2016-02-14T05:40:50.925Z,961.72
2016-02-14T05:41:50.928Z,961.67
2016-02-14T05:42:50.930Z,961.66
2016-02-14T05:43:50.933Z,961.72
2016-02-14T05:44:50.921Z,961.67
2016-02-14T05:45:50.923Z,961.67
2016-02-14T05:46:50.926Z,961.64
2016-02-14T05:47:50.928Z,961.68
2016-02-14T05:48:50.916Z,961.67
2016-02-14T05:49:50.919Z,961.65
2016-02-14T05:50:50.921Z,961.6
2016-02-14T05:51:50.908Z,961.65
2016-02-14T05:52:50.911Z,961.64
2016-02-14T05:53:50.914Z,961.68
2016-02-14T05:54:50.917Z,961.68
2016-02-14T05:55:50.904Z,961.6
2016-02-14T05:56:50.906Z,961.64
2016-02-14T05:57:50.909Z,961.66
2016-02-14T05:58:50.896Z,961.69
2016-02-14T05:59:50.898Z,961.66
2016-02-14T06:00:50.901Z,961.64
2016-02-14T06:01:50.904Z,961.64
2016-02-14T06:02:50.890Z,961.58
2016-02-14T06:03:50.894Z,961.55
2016-02-14T06:04:50.886Z,961.57
2016-02-14T06:05:50.873Z,961.52
2016-02-14T06:06:50.891Z,961.51
2016-02-14T06:07:50.878Z,961.49
2016-02-14T06:08:50.881Z,961.48
2016-02-14T06:09:50.883Z,961.49
2016-02-14T06:10:50.887Z,961.52
2016-02-14T06:11:50.873Z,961.47
2016-02-14T06:12:50.875Z,961.53
2016-02-14T06:13:50.863Z,961.57
2016-02-14T06:14:50.866Z,961.58
2016-02-14T06:15:50.868Z,961.58
2016-02-14T06:16:50.855Z,961.58
2016-02-14T06:17:50.858Z,961.56
2016-02-14T06:18:50.860Z,961.53
2016-02-14T06:19:50.864Z,961.57
2016-02-14T06:20:50.850Z,961.58
2016-02-14T06:21:50.852Z,961.6
2016-02-14T06:22:50.855Z,961.59
2016-02-14T06:23:50.843Z,961.59
2016-02-14T06:24:50.845Z,961.65
2016-02-14T06:25:50.848Z,961.64
2016-02-14T06:26:50.851Z,961.69
2016-02-14T06:27:50.854Z,961.73
2016-02-14T06:28:50.841Z,961.7
2016-02-14T06:29:50.843Z,961.68
2016-02-14T06:30:50.846Z,961.68
2016-02-14T06:31:50.849Z,961.72
2016-02-14T06:32:50.836Z,961.7
2016-02-14T06:33:50.839Z,961.73
2016-02-14T06:34:50.825Z,961.76
2016-02-14T06:35:50.829Z,961.75
2016-02-14T06:36:50.831Z,961.81
2016-02-14T06:37:50.834Z,961.81
2016-02-14T06:38:50.820Z,961.8
2016-02-14T06:39:50.823Z,961.75
2016-02-14T06:40:50.825Z,961.79
2016-02-14T06:41:50.814Z,961.82
2016-02-14T06:42:50.816Z,961.83
2016-02-14T06:43:50.818Z,961.88
2016-02-14T06:44:50.822Z,961.92
2016-02-14T06:45:50.824Z,961.94
2016-02-14T06:46:50.811Z,961.98
2016-02-14T06:47:50.814Z,961.92
2016-02-14T06:48:50.801Z,961.95
2016-02-14T06:49:50.803Z,961.97
2016-02-14T06:50:50.806Z,961.98
2016-02-14T06:51:50.808Z,961.98
2016-02-14T06:52:50.796Z,961.95
2016-02-14T06:53:50.814Z,961.98
2016-02-14T06:54:50.801Z,961.96
2016-02-14T06:55:50.804Z,961.98
2016-02-14T06:56:50.807Z,962.01
2016-02-14T06:57:50.810Z,962.02
2016-02-14T06:58:50.781Z,962.05
2016-02-14T06:59:50.784Z,962.03
2016-02-14T07:00:50.776Z,962
2016-02-14T07:01:50.768Z,961.96
2016-02-14T07:02:50.746Z,961.9
2016-02-14T07:03:50.738Z,961.93
2016-02-14T07:04:50.732Z,961.89
2016-02-14T07:05:50.715Z,961.86
2016-02-14T07:06:50.713Z,961.86
2016-02-14T07:07:50.713Z,961.89
2016-02-14T07:08:50.712Z,961.86
2016-02-14T07:09:50.696Z,961.87
2016-02-14T07:10:50.698Z,961.91
2016-02-14T07:11:50.700Z,961.88
2016-02-14T07:12:50.701Z,961.93
2016-02-14T07:13:50.702Z,961.96
2016-02-14T07:14:50.689Z,961.93
2016-02-14T07:15:50.691Z,961.91
2016-02-14T07:16:50.692Z,961.93
2016-02-14T07:17:50.679Z,961.92
2016-02-14T07:18:50.681Z,961.96
2016-02-14T07:19:50.684Z,961.95
2016-02-14T07:20:50.686Z,961.99
2016-02-14T07:21:50.705Z,961.92
2016-02-14T07:22:50.690Z,961.91
2016-02-14T07:23:50.678Z,961.95
2016-02-14T07:24:50.664Z,961.95
2016-02-14T07:25:50.667Z,961.98
2016-02-14T07:26:50.670Z,961.95
2016-02-14T07:27:50.673Z,961.89
2016-02-14T07:28:50.675Z,961.93
2016-02-14T07:29:50.662Z,961.86
2016-02-14T07:30:50.681Z,961.88
2016-02-14T07:31:50.668Z,961.86
2016-02-14T07:32:50.671Z,961.86
2016-02-14T07:33:50.689Z,961.92
2016-02-14T07:34:50.676Z,961.85
2016-02-14T07:35:50.663Z,961.82
2016-02-14T07:36:50.666Z,961.81
2016-02-14T07:37:50.668Z,961.77
2016-02-14T07:38:50.701Z,961.75
2016-02-14T07:39:50.674Z,961.7
2016-02-14T07:40:50.676Z,961.73
2016-02-14T07:41:50.679Z,961.73
2016-02-14T07:42:50.666Z,961.68
2016-02-14T07:43:50.684Z,961.72
2016-02-14T07:44:50.671Z,961.68
2016-02-14T07:45:50.674Z,961.68
2016-02-14T07:46:50.676Z,961.65
2016-02-14T07:47:50.679Z,961.68
2016-02-14T07:48:50.682Z,961.66
2016-02-14T07:49:50.684Z,961.68
2016-02-14T07:50:50.688Z,961.7
2016-02-14T07:51:50.690Z,961.7
2016-02-14T07:52:50.693Z,961.75
2016-02-14T07:53:50.695Z,961.72
2016-02-14T07:54:50.698Z,961.71
2016-02-14T07:55:50.701Z,961.71
2016-02-14T07:56:50.703Z,961.77
2016-02-14T07:57:50.706Z,961.77
2016-02-14T07:58:50.724Z,961.77
2016-02-14T07:59:50.712Z,961.81
2016-02-14T08:00:50.714Z,961.84
2016-02-14T08:01:50.717Z,961.84
2016-02-14T08:02:50.735Z,961.86
2016-02-14T08:03:50.722Z,961.88
2016-02-14T08:04:50.741Z,961.86
2016-02-14T08:05:50.743Z,961.89
2016-02-14T08:06:50.777Z,961.89
2016-02-14T08:07:50.749Z,961.87
2016-02-14T08:08:50.752Z,961.86
2016-02-14T08:09:50.754Z,961.9
2016-02-14T08:10:50.757Z,961.91
2016-02-14T08:11:50.759Z,961.93
2016-02-14T08:12:50.779Z,961.96
2016-02-14T08:13:50.765Z,961.97
2016-02-14T08:14:50.767Z,961.97
2016-02-14T08:15:50.771Z,961.98
2016-02-14T08:16:50.773Z,961.98
2016-02-14T08:17:50.776Z,961.96
2016-02-14T08:18:50.779Z,961.99
2016-02-14T08:19:50.781Z,961.96
2016-02-14T08:20:50.768Z,961.97
2016-02-14T08:21:50.771Z,961.95
2016-02-14T08:22:50.790Z,961.99
2016-02-14T08:23:50.775Z,961.96
2016-02-14T08:24:50.778Z,962
2016-02-14T08:25:50.781Z,961.95
2016-02-14T08:26:50.784Z,961.95
2016-02-14T08:27:50.787Z,961.95
2016-02-14T08:28:50.789Z,961.94
2016-02-14T08:29:50.777Z,961.94
2016-02-14T08:30:50.780Z,961.97
2016-02-14T08:31:50.782Z,961.96
2016-02-14T08:32:50.785Z,961.97
2016-02-14T08:33:50.788Z,961.96
2016-02-14T08:34:50.790Z,961.92
2016-02-14T08:35:50.794Z,961.95
2016-02-14T08:36:50.796Z,961.92
2016-02-14T08:37:50.798Z,961.93
2016-02-14T08:38:50.801Z,961.99
2016-02-14T08:39:50.804Z,961.93
2016-02-14T08:40:50.791Z,961.88
2016-02-14T08:41:50.824Z,961.87
2016-02-14T08:42:50.796Z,961.88
2016-02-14T08:43:50.814Z,961.9
2016-02-14T08:44:50.818Z,961.92
2016-02-14T08:45:50.820Z,961.91
2016-02-14T08:46:50.806Z,961.89
2016-02-14T08:47:50.809Z,961.9
2016-02-14T08:48:50.812Z,961.98
2016-02-14T08:49:50.815Z,961.96
2016-02-14T08:50:50.818Z,961.99
2016-02-14T08:51:50.820Z,961.98
2016-02-14T08:52:50.807Z,961.97
2016-02-14T08:53:50.826Z,961.91
2016-02-14T08:54:50.812Z,961.94
2016-02-14T08:55:50.815Z,961.99
2016-02-14T08:56:50.818Z,961.97
2016-02-14T08:57:50.820Z,961.97
2016-02-14T08:58:50.823Z,962.01
2016-02-14T08:59:50.825Z,962.02
2016-02-14T09:00:50.829Z,962.04
2016-02-14T09:01:50.831Z,962.1
2016-02-14T09:02:50.834Z,962.09
2016-02-14T09:03:50.837Z,962.12
2016-02-14T09:04:50.839Z,962.1
2016-02-14T09:05:50.842Z,962.11
2016-02-14T09:06:50.844Z,962.16
2016-02-14T09:07:50.847Z,962.18
2016-02-14T09:08:50.850Z,962.17
2016-02-14T09:09:50.852Z,962.17
2016-02-14T09:10:50.856Z,962.17
2016-02-14T09:11:50.874Z,962.13
2016-02-14T09:12:50.877Z,962.15
2016-02-14T09:13:50.863Z,962.15
2016-02-14T09:14:50.866Z,962.16
2016-02-14T09:15:50.869Z,962.19
2016-02-14T09:16:50.871Z,962.19
2016-02-14T09:17:50.874Z,962.22
2016-02-14T09:18:50.877Z,962.15
2016-02-14T09:19:50.880Z,962.15
2016-02-14T09:20:50.882Z,962.14
2016-02-14T09:21:50.885Z,962.13
2016-02-14T09:22:50.888Z,962.19
2016-02-14T09:23:50.890Z,962.21
2016-02-14T09:24:50.892Z,962.2
2016-02-14T09:25:50.896Z,962.23
2016-02-14T09:26:50.883Z,962.23
2016-02-14T09:27:50.901Z,962.28
2016-02-14T09:28:50.889Z,962.25
2016-02-14T09:29:50.906Z,962.23
2016-02-14T09:30:50.894Z,962.29
2016-02-14T09:31:50.912Z,962.29
2016-02-14T09:32:50.899Z,962.28
2016-02-14T09:33:50.917Z,962.36
2016-02-14T09:34:50.905Z,962.38
2016-02-14T09:35:50.907Z,962.42
2016-02-14T09:36:50.958Z,962.44
2016-02-14T09:37:50.913Z,962.45
2016-02-14T09:38:50.915Z,962.46
2016-02-14T09:39:50.919Z,962.5
2016-02-14T09:40:50.921Z,962.51
2016-02-14T09:41:50.923Z,962.56
2016-02-14T09:42:50.926Z,962.56
2016-02-14T09:43:50.929Z,962.59
2016-02-14T09:44:50.932Z,962.55
2016-02-14T09:45:50.934Z,962.56
2016-02-14T09:46:50.937Z,962.58
2016-02-14T09:47:50.940Z,962.6
2016-02-14T09:48:50.942Z,962.61
2016-02-14T09:49:50.945Z,962.64
2016-02-14T09:50:50.947Z,962.66
2016-02-14T09:51:50.935Z,962.65
2016-02-14T09:52:50.937Z,962.65
2016-02-14T09:53:50.956Z,962.68
2016-02-14T09:54:50.943Z,962.7
2016-02-14T09:55:50.945Z,962.69
2016-02-14T09:56:50.948Z,962.73
2016-02-14T09:57:50.967Z,962.72
2016-02-14T09:58:50.953Z,962.71
2016-02-14T09:59:50.972Z,962.74
2016-02-14T10:00:50.975Z,962.71
2016-02-14T10:01:50.962Z,962.72
2016-02-14T10:02:50.980Z,962.74
2016-02-14T10:03:50.966Z,962.74
2016-02-14T10:04:50.970Z,962.75
2016-02-14T10:05:50.988Z,962.77
2016-02-14T10:06:50.974Z,962.77
2016-02-14T10:07:50.978Z,962.8
2016-02-14T10:08:50.980Z,962.79
2016-02-14T10:09:50.983Z,962.78
2016-02-14T10:10:50.971Z,962.79
2016-02-14T10:11:50.973Z,962.79
2016-02-14T10:12:50.976Z,962.81
2016-02-14T10:13:50.979Z,962.77
2016-02-14T10:14:50.981Z,962.82
2016-02-14T10:15:50.984Z,962.85
2016-02-14T10:16:50.987Z,962.87
2016-02-14T10:17:50.990Z,962.88
2016-02-14T10:18:50.992Z,962.88
2016-02-14T10:19:50.994Z,962.9
2016-02-14T10:20:50.998Z,962.91
2016-02-14T10:21:51.000Z,962.91
2016-02-14T10:22:51.002Z,962.96
2016-02-14T10:23:51.006Z,962.94
2016-02-14T10:24:51.008Z,962.93
2016-02-14T10:25:51.011Z,962.99
2016-02-14T10:26:51.014Z,962.99
2016-02-14T10:27:51.016Z,962.94
2016-02-14T10:28:51.019Z,962.95
2016-02-14T10:29:51.022Z,962.98
2016-02-14T10:30:51.008Z,962.98
2016-02-14T10:31:51.027Z,963
2016-02-14T10:32:51.014Z,962.99
2016-02-14T10:33:51.017Z,963.01
2016-02-14T10:34:51.019Z,963.03
2016-02-14T10:35:51.021Z,962.97
2016-02-14T10:36:51.025Z,963
2016-02-14T10:37:51.030Z,963.02
2016-02-14T10:38:51.033Z,963.01
2016-02-14T10:39:51.036Z,962.99
2016-02-14T10:40:51.038Z,962.99
2016-02-14T10:41:51.041Z,963.08
2016-02-14T10:42:51.044Z,963.07
2016-02-14T10:43:51.030Z,963.05
2016-02-14T10:44:51.033Z,963.06
2016-02-14T10:45:51.036Z,963.07
2016-02-14T10:46:51.038Z,963.1
2016-02-14T10:47:51.042Z,963.12
2016-02-14T10:48:51.044Z,963.08
2016-02-14T10:49:51.046Z,963.11
2016-02-14T10:50:51.049Z,963.1
2016-02-14T10:51:51.051Z,963.1
2016-02-14T10:52:51.039Z,963.12
2016-02-14T10:53:51.073Z,963.17
2016-02-14T10:54:51.045Z,963.15
2016-02-14T10:55:51.048Z,963.15
2016-02-14T10:56:51.050Z,963.19
2016-02-14T10:57:51.053Z,963.15
2016-02-14T10:58:51.056Z,963.16
2016-02-14T10:59:51.058Z,963.17
2016-02-14T11:00:51.061Z,963.18
2016-02-14T11:01:51.048Z,963.2
2016-02-14T11:02:51.067Z,963.23
2016-02-14T11:03:51.053Z,963.2
2016-02-14T11:04:51.056Z,963.22
2016-02-14T11:05:51.059Z,963.18
2016-02-14T11:06:51.061Z,963.21
2016-02-14T11:07:51.063Z,963.22
2016-02-14T11:08:51.098Z,963.24
2016-02-14T11:09:51.069Z,963.22
2016-02-14T11:10:51.072Z,963.23
2016-02-14T11:11:51.075Z,963.24
2016-02-14T11:12:51.061Z,963.24
2016-02-14T11:13:51.064Z,963.26
2016-02-14T11:14:51.067Z,963.24
2016-02-14T11:15:51.069Z,963.27
2016-02-14T11:16:51.072Z,963.31
2016-02-14T11:17:51.075Z,963.31
2016-02-14T11:18:51.078Z,963.33
2016-02-14T11:19:51.080Z,963.3
2016-02-14T11:20:51.083Z,963.31
2016-02-14T11:21:51.086Z,963.34
2016-02-14T11:22:51.073Z,963.34
2016-02-14T11:23:51.076Z,963.37
2016-02-14T11:24:51.078Z,963.36
2016-02-14T11:25:51.082Z,963.33
2016-02-14T11:26:51.084Z,963.4
2016-02-14T11:27:51.086Z,963.38
2016-02-14T11:28:51.152Z,963.43
2016-02-14T11:29:51.092Z,963.44
2016-02-14T11:30:51.094Z,963.44
2016-02-14T11:31:51.082Z,963.47
2016-02-14T11:32:51.100Z,963.46
2016-02-14T11:33:51.087Z,963.46
2016-02-14T11:34:51.090Z,963.46
2016-02-14T11:35:51.092Z,963.52
2016-02-14T11:36:51.095Z,963.52
2016-02-14T11:37:51.097Z,963.54
2016-02-14T11:38:51.100Z,963.53
2016-02-14T11:39:51.087Z,963.55
2016-02-14T11:40:51.106Z,963.6
2016-02-14T11:41:51.092Z,963.62
2016-02-14T11:42:51.095Z,963.67
2016-02-14T11:43:51.098Z,963.66
2016-02-14T11:44:51.100Z,963.65
2016-02-14T11:45:51.103Z,963.67
2016-02-14T11:46:51.106Z,963.68
2016-02-14T11:47:51.108Z,963.72
2016-02-14T11:48:51.112Z,963.74
2016-02-14T11:49:51.114Z,963.75
2016-02-14T11:50:51.102Z,963.77
2016-02-14T11:51:51.104Z,963.75
2016-02-14T11:52:51.106Z,963.79
2016-02-14T11:53:51.110Z,963.8
2016-02-14T11:54:51.112Z,963.82
2016-02-14T11:55:51.115Z,963.84
2016-02-14T11:56:51.102Z,963.86
2016-02-14T11:57:51.120Z,963.9
2016-02-14T11:58:51.107Z,963.86
2016-02-14T11:59:51.125Z,963.88
2016-02-14T12:00:51.112Z,963.89
2016-02-14T12:01:51.115Z,963.92
2016-02-14T12:02:51.117Z,963.95
2016-02-14T12:03:51.105Z,963.98
2016-02-14T12:04:51.108Z,963.99
2016-02-14T12:05:51.110Z,964.03
2016-02-14T12:06:51.113Z,964.04
2016-02-14T12:07:51.131Z,963.99
2016-02-14T12:08:51.134Z,964.01
2016-02-14T12:09:51.119Z,964
2016-02-14T12:10:51.122Z,964.01
2016-02-14T12:11:51.124Z,964.03
2016-02-14T12:12:51.111Z,964.03
2016-02-14T12:13:51.130Z,964.05
2016-02-14T12:14:51.116Z,964.06
2016-02-14T12:15:51.119Z,964.07
2016-02-14T12:16:51.122Z,964.06
2016-02-14T12:17:51.140Z,964.06
2016-02-14T12:18:51.127Z,964.09
2016-02-14T12:19:51.129Z,964.09
2016-02-14T12:20:51.133Z,964.15
2016-02-14T12:21:51.135Z,964.17
2016-02-14T12:22:51.121Z,964.15
2016-02-14T12:23:51.125Z,964.13
2016-02-14T12:24:51.127Z,964.1
2016-02-14T12:25:51.130Z,964.06
2016-02-14T12:26:51.132Z,964.09
2016-02-14T12:27:51.136Z,964.09
2016-02-14T12:28:51.138Z,964.13
2016-02-14T12:29:51.140Z,964.08
2016-02-14T12:30:51.144Z,964.11
2016-02-14T12:31:51.146Z,964.14